Pismo Beach, California
Current Conditions -  °F | °C
As of 9:28 AM on Friday 24 Oct 2014 (Local Time) from KSBP Reporting Station
Haze Haze  
Wind Chill: 53°   Ceiling: 200
Heat Index: 53°   Visibility: 0.75mi
Dew Point: 53°   Wind: 0mph
Humidity: 100%   Direction: NA
Pressure: 30.01"   Gusts: NA
Location:  35.16°N, 120.66°W
Report Text: KSBP 241628Z 00000KT 3/4SM BR VV002 12/12 A3001 RMK AO2 T01170117
Loading
Personal Weather Stations






























Interactive Weather Map
Tropical Storm Tracking
New forecast layout! Learn more

10-Day Weather Forecast

Advertisements
Track Severe Weather on mobile